Portway Acres, Texas
Current Conditions -  °F | °C
As of 12:53 AM on Thursday 23 Oct 2014 (Local Time) from KBRO Reporting Station
Clear Clear  
Wind Chill: 73°   Ceiling: Unl
Heat Index: 73°   Visibility: 10mi
Dew Point: 68°   Wind: 3mph
Humidity: 84%   Direction: 40°NE
Pressure: 30.02"   Gusts: NA
Location:  26.0002°N, 97.5729°W
Report Text: KBRO 230553Z 04003KT 10SM CLR 23/20 A3002 RMK AO2 SLP164 T02280200 10256 20222 403000222 58000
Loading
Personal Weather Stations






























Interactive Weather Map
Tropical Storm Tracking
New forecast layout! Learn more

10-Day Weather Forecast

Advertisements
Track Severe Weather on mobile